Time;durP1;ratioP1;P1;durP2;ratioP2;P2;SDS_P1;SDS_P2;PMS_P1;PMS_P2;Temp;Humidity;BMP_temperature;BMP_pressure;BME280_temperature;BME280_humidity;BME280_pressure;Samples;Min_cycle;Max_cycle;Signal;HPM_P1;HPM_P2
2022/07/24 00:01:02;;;;;;;;;;;;;;;29.87;42.39;94625.31;5015310;28;7022;-61
2022/07/24 00:03:28;;;;;;;;;;;;;;;29.86;42.27;94625.88;5032349;28;8834;-60
2022/07/24 00:05:54;;;;;;;;;;;;;;;29.85;42.04;94624.38;5016904;28;6963;-61
2022/07/24 00:08:20;;;;;;;;;;;;;;;29.87;42.15;94624.56;5016026;28;9884;-61
2022/07/24 00:10:46;;;;;;;;;;;;;;;29.86;42.15;94621.06;5031324;28;9211;-60
2022/07/24 00:13:14;;;;;;;;;;;;;;;29.85;42.25;94625.13;5016194;28;8824;-61
2022/07/24 00:15:41;;;;;;;;;;;;;;;29.87;41.44;94630.13;5033136;28;9052;-60
2022/07/24 00:18:10;;;;;;;;;;;;;;;29.86;41.65;94634.94;5016041;28;9459;-61
2022/07/24 00:20:38;;;;;;;;;;;;;;;29.86;41.57;94634.94;5030747;28;7093;-61
2022/07/24 00:23:06;;;;;;;;;;;;;;;29.86;42.76;94634.19;5017258;28;9333;-60
2022/07/24 00:25:58;;;;;;;;;;;;;;;29.87;42.70;94636.41;5024741;28;7060;-61
2022/07/24 00:28:36;;;;;;;;;;;;;;;29.84;41.24;94637.47;5020560;28;8785;-61
2022/07/24 00:31:12;;;;;;;;;;;;;;;29.84;41.58;94637.47;5038690;28;7227;-60
2022/07/24 00:33:55;;;;;;;;;;;;;;;29.83;41.91;94630.44;5029237;28;7373;-60
2022/07/24 00:36:32;;;;;;;;;;;;;;;29.84;41.92;94628.44;5021355;28;7378;-60
2022/07/24 00:39:07;;;;;;;;;;;;;;;29.82;41.64;94631.72;5021156;28;7308;-60
2022/07/24 00:41:43;;;;;;;;;;;;;;;29.83;41.69;94633.22;5024870;28;7057;-61
2022/07/24 00:44:26;;;;;;;;;;;;;;;29.81;41.17;94630.25;5036224;28;6986;-60
2022/07/24 00:46:54;;;;;;;;;;;;;;;29.82;42.43;94628.94;5036836;28;7216;-61
2022/07/24 00:49:24;;;;;;;;;;;;;;;29.81;41.31;94627.47;5032503;28;7173;-60
2022/07/24 00:51:53;;;;;;;;;;;;;;;29.80;41.59;94631.50;5033207;28;7219;-61
2022/07/24 00:54:23;;;;;;;;;;;;;;;29.80;42.03;94637.06;5038357;28;9090;-61
2022/07/24 00:57:10;;;;;;;;;;;;;;;29.81;42.12;94641.34;5021572;28;8035;-60
2022/07/24 00:59:42;;;;;;;;;;;;;;;29.79;41.71;94635.56;5022183;28;6992;-60
2022/07/24 01:02:08;;;;;;;;;;;;;;;29.80;42.05;94628.72;5022200;28;9399;-60
2022/07/24 01:08:14;;;;;;;;;;;;;;;29.77;41.47;94621.50;5037434;28;9056;-61
2022/07/24 01:10:44;;;;;;;;;;;;;;;29.78;42.45;94625.75;5024379;28;7261;-60
2022/07/24 01:13:23;;;;;;;;;;;;;;;29.77;41.59;94622.25;5024021;28;8585;-61
2022/07/24 01:16:10;;;;;;;;;;;;;;;29.78;41.59;94622.97;5038056;28;9030;-60
2022/07/24 01:18:52;;;;;;;;;;;;;;;29.78;41.17;94625.75;5023359;28;9347;-60
2022/07/24 01:21:51;;;;;;;;;;;;;;;29.78;41.15;94629.28;5031364;28;7039;-61
2022/07/24 01:24:28;;;;;;;;;;;;;;;29.78;42.08;94622.97;5011083;28;7157;-61
2022/07/24 01:27:05;;;;;;;;;;;;;;;29.78;41.40;94625.75;5018208;28;7379;-61
2022/07/24 01:29:58;;;;;;;;;;;;;;;29.79;41.47;94624.47;5017227;28;7083;-60
2022/07/24 01:32:24;;;;;;;;;;;;;;;29.77;41.23;94627.78;5009173;28;7286;-60
2022/07/24 01:35:20;;;;;;;;;;;;;;;29.77;41.27;94621.50;5017649;28;7064;-61
2022/07/24 01:37:48;;;;;;;;;;;;;;;29.77;41.16;94627.03;4989770;28;7139;-61
2022/07/24 01:40:14;;;;;;;;;;;;;;;29.76;42.00;94620.75;4989422;28;7034;-61
2022/07/24 01:42:40;;;;;;;;;;;;;;;29.77;42.30;94613.19;4994230;28;9003;-60
2022/07/24 01:45:06;;;;;;;;;;;;;;;29.75;41.37;94622.00;4945130;28;7316;-60
2022/07/24 01:47:35;;;;;;;;;;;;;;;29.75;41.62;94624.06;4937079;28;7139;-61
2022/07/24 01:50:03;;;;;;;;;;;;;;;29.76;41.03;94622.75;4936892;28;9224;-61
2022/07/24 01:52:29;;;;;;;;;;;;;;;29.75;41.20;94618.50;4936809;28;7262;-61
2022/07/24 01:54:55;;;;;;;;;;;;;;;29.73;41.11;94613.44;4934301;29;7247;-61
2022/07/24 01:57:23;;;;;;;;;;;;;;;29.74;41.31;94612.22;4936386;28;9457;-61
2022/07/24 01:59:50;;;;;;;;;;;;;;;29.72;41.30;94602.91;4940777;28;7845;-61
2022/07/24 02:02:16;;;;;;;;;;;;;;;29.73;40.98;94601.63;4941417;28;7255;-61
2022/07/24 02:04:46;;;;;;;;;;;;;;;29.73;41.27;94601.63;4948629;28;8760;-61
2022/07/24 02:07:12;;;;;;;;;;;;;;;29.71;41.77;94602.16;4963472;28;7227;-60
2022/07/24 02:09:51;;;;;;;;;;;;;;;29.72;41.63;94605.69;4958623;28;7302;-61
2022/07/24 02:12:18;;;;;;;;;;;;;;;29.72;41.89;94603.66;4956088;28;9896;-61
2022/07/24 02:14:48;;;;;;;;;;;;;;;29.71;41.45;94593.84;5005099;28;7138;-61
2022/07/24 02:17:17;;;;;;;;;;;;;;;29.73;41.13;94598.88;5022281;28;6860;-61
2022/07/24 02:19:47;;;;;;;;;;;;;;;29.72;40.92;94602.91;5039058;28;7012;-60
2022/07/24 02:22:14;;;;;;;;;;;;;;;29.69;41.23;94595.63;5022306;28;7273;-60
2022/07/24 02:24:42;;;;;;;;;;;;;;;29.71;40.89;94598.66;5023727;28;7274;-61
2022/07/24 02:27:09;;;;;;;;;;;;;;;29.69;41.86;94599.16;5023036;28;8600;-61
2022/07/24 02:29:41;;;;;;;;;;;;;;;29.71;41.34;94610.47;5023719;28;7851;-60
2022/07/24 02:32:11;;;;;;;;;;;;;;;29.69;41.59;94599.16;5023110;28;7219;-61
2022/07/24 02:34:40;;;;;;;;;;;;;;;29.70;41.33;94603.44;5023286;28;9107;-60
2022/07/24 02:37:37;;;;;;;;;;;;;;;29.70;41.94;94606.22;5039678;28;7457;-60
2022/07/24 02:40:05;;;;;;;;;;;;;;;29.69;41.27;94612.28;5022641;28;8944;-61
2022/07/24 02:42:32;;;;;;;;;;;;;;;29.69;41.53;94617.81;5012543;28;7237;-61
2022/07/24 02:45:07;;;;;;;;;;;;;;;29.68;41.53;94608.78;5030971;28;7254;-61
2022/07/24 02:47:58;;;;;;;;;;;;;;;29.70;40.95;94611.00;5008227;28;9123;-61
2022/07/24 02:51:10;;;;;;;;;;;;;;;29.69;41.09;94621.34;5005301;28;7249;-60
2022/07/24 02:53:36;;;;;;;;;;;;;;;29.70;41.31;94619.31;4977336;28;7105;-61
2022/07/24 02:56:02;;;;;;;;;;;;;;;29.70;41.56;94624.88;4977107;28;7016;-61
2022/07/24 02:58:28;;;;;;;;;;;;;;;29.69;41.34;94628.91;4976497;28;9463;-61
2022/07/24 03:01:05;;;;;;;;;;;;;;;29.70;41.34;94622.09;4976407;28;6989;-61
2022/07/24 03:03:40;;;;;;;;;;;;;;;29.69;40.82;94629.66;4976653;28;9075;-61
2022/07/24 03:06:11;;;;;;;;;;;;;;;29.68;40.50;94617.09;4990550;28;9114;-61
2022/07/24 03:08:36;;;;;;;;;;;;;;;29.66;40.79;94622.44;4992272;28;7337;-61
2022/07/24 03:11:16;;;;;;;;;;;;;;;29.67;41.43;94614.84;4992288;28;6975;-60
2022/07/24 03:14:18;;;;;;;;;;;;;;;29.67;40.91;94617.59;4975975;28;9038;-61
2022/07/24 03:16:44;;;;;;;;;;;;;;;29.67;41.33;94626.69;4900130;29;9558;-61
2022/07/24 03:19:10;;;;;;;;;;;;;;;29.67;40.91;94623.16;4919745;29;7050;-61
2022/07/24 03:21:36;;;;;;;;;;;;;;;29.67;41.52;94628.69;4918478;29;7096;-61
2022/07/24 03:24:02;;;;;;;;;;;;;;;29.65;40.83;94620.91;4921333;29;7424;-61
2022/07/24 03:26:31;;;;;;;;;;;;;;;29.65;41.47;94618.16;4919451;29;7340;-61
2022/07/24 03:28:57;;;;;;;;;;;;;;;29.64;40.96;94619.44;4917892;29;7240;-60
2022/07/24 03:31:32;;;;;;;;;;;;;;;29.65;41.10;94614.63;4947015;28;7128;-61
2022/07/24 03:34:01;;;;;;;;;;;;;;;29.64;40.57;94607.59;4935583;28;8358;-61
2022/07/24 03:36:27;;;;;;;;;;;;;;;29.65;40.96;94612.59;4931092;28;8775;-61
2022/07/24 03:38:53;;;;;;;;;;;;;;;29.64;41.11;94613.91;4946789;28;7029;-61
2022/07/24 03:41:19;;;;;;;;;;;;;;;29.65;41.30;94611.84;4938635;28;7062;-61
2022/07/24 03:43:45;;;;;;;;;;;;;;;29.66;40.53;94616.13;4938959;28;6909;-61
2022/07/24 03:46:11;;;;;;;;;;;;;;;29.65;40.36;94609.09;4939580;28;7240;-61
2022/07/24 03:48:37;;;;;;;;;;;;;;;29.66;41.16;94618.91;4947570;28;7218;-61
2022/07/24 03:51:03;;;;;;;;;;;;;;;29.64;40.57;94613.91;4988898;28;9078;-61
2022/07/24 03:53:29;;;;;;;;;;;;;;;29.64;40.78;94618.69;5015725;28;7195;-61
2022/07/24 03:55:57;;;;;;;;;;;;;;;29.60;41.17;94610.66;5016260;28;9080;-61
2022/07/24 03:58:26;;;;;;;;;;;;;;;29.63;41.00;94620.72;5015789;28;6984;-61
2022/07/24 04:00:57;;;;;;;;;;;;;;;29.62;40.79;94616.44;5016665;28;9252;-61
2022/07/24 04:03:23;;;;;;;;;;;;;;;29.62;41.25;94613.66;5018960;28;7260;-61
2022/07/24 04:05:48;;;;;;;;;;;;;;;29.61;40.45;94626.03;5033418;28;7291;-61
2022/07/24 04:08:15;;;;;;;;;;;;;;;29.62;40.49;94621.25;5021983;28;7202;-61
2022/07/24 04:10:41;;;;;;;;;;;;;;;29.62;41.24;94629.56;5017543;28;7367;-61
2022/07/24 04:13:07;;;;;;;;;;;;;;;29.60;40.92;94624.53;5016985;28;8442;-61
2022/07/24 04:15:33;;;;;;;;;;;;;;;29.62;40.96;94632.34;5031677;28;9177;-61
2022/07/24 04:17:59;;;;;;;;;;;;;;;29.61;41.61;94631.59;5018165;28;9084;-61
2022/07/24 04:20:25;;;;;;;;;;;;;;;29.60;40.80;94630.06;5015449;28;8772;-61
2022/07/24 04:22:51;;;;;;;;;;;;;;;29.61;40.35;94631.59;5032290;28;8814;-61
2022/07/24 04:25:17;;;;;;;;;;;;;;;29.60;41.04;94629.34;5016399;28;9096;-62
2022/07/24 04:27:43;;;;;;;;;;;;;;;29.61;40.89;94636.38;5031914;28;7507;-61
2022/07/24 04:30:12;;;;;;;;;;;;;;;29.59;40.60;94633.38;5031925;28;9019;-61
2022/07/24 04:32:38;;;;;;;;;;;;;;;29.58;41.25;94638.19;5015526;28;7264;-61
2022/07/24 04:35:07;;;;;;;;;;;;;;;29.60;41.18;94634.91;5016018;28;7608;-61
2022/07/24 04:37:32;;;;;;;;;;;;;;;29.59;40.10;94636.16;5016519;28;8928;-61
2022/07/24 04:40:01;;;;;;;;;;;;;;;29.58;40.95;94629.16;5016856;28;7187;-61
2022/07/24 04:42:28;;;;;;;;;;;;;;;29.59;40.50;94638.94;5018796;28;8755;-61
2022/07/24 04:45:04;;;;;;;;;;;;;;;29.61;41.19;94641.91;5021375;28;7278;-61
2022/07/24 04:47:35;;;;;;;;;;;;;;;29.59;40.32;94639.69;5018600;28;7270;-61
2022/07/24 04:50:04;;;;;;;;;;;;;;;29.58;40.58;94638.19;5031170;28;7014;-61
2022/07/24 04:52:30;;;;;;;;;;;;;;;29.57;40.93;94638.72;5031979;28;7239;-61
2022/07/24 04:54:58;;;;;;;;;;;;;;;29.58;40.55;94637.47;5029779;28;6975;-61
2022/07/24 04:57:26;;;;;;;;;;;;;;;29.57;40.66;94644.25;5020494;28;9114;-61
2022/07/24 04:59:56;;;;;;;;;;;;;;;29.58;40.54;94640.22;5015346;28;6946;-61
2022/07/24 05:02:22;;;;;;;;;;;;;;;29.56;40.09;94634.44;5016512;28;7312;-61
2022/07/24 05:04:48;;;;;;;;;;;;;;;29.57;40.03;94633.19;5031791;28;7093;-61
2022/07/24 05:07:14;;;;;;;;;;;;;;;29.57;40.50;94635.94;5032335;28;6856;-61
2022/07/24 05:09:50;;;;;;;;;;;;;;;29.57;40.99;94641.50;5018495;28;7751;-61
2022/07/24 05:12:29;;;;;;;;;;;;;;;29.55;40.12;94636.50;5038920;28;7610;-61
2022/07/24 05:15:22;;;;;;;;;;;;;;;29.55;40.83;94636.50;5021589;28;9400;-61
2022/07/24 05:17:56;;;;;;;;;;;;;;;29.53;40.04;94639.06;5025931;28;7034;-61
2022/07/24 05:20:27;;;;;;;;;;;;;;;29.52;39.69;94642.34;5021945;28;7256;-61
2022/07/24 05:23:03;;;;;;;;;;;;;;;29.53;40.20;94649.38;5030709;28;9086;-61
2022/07/24 05:25:44;;;;;;;;;;;;;;;29.52;40.47;94645.09;5031730;28;7039;-61
2022/07/24 05:28:13;;;;;;;;;;;;;;;29.52;40.20;94643.09;5024954;28;7452;-61
2022/07/24 05:30:41;;;;;;;;;;;;;;;29.51;40.28;94638.09;5029648;28;7030;-61
2022/07/24 05:33:17;;;;;;;;;;;;;;;29.53;40.70;94641.06;5021781;28;7173;-61
2022/07/24 05:35:53;;;;;;;;;;;;;;;29.51;39.61;94643.63;5031093;28;7231;-61
2022/07/24 05:38:23;;;;;;;;;;;;;;;29.49;40.59;94640.63;5020668;28;7199;-61
2022/07/24 05:40:51;;;;;;;;;;;;;;;29.50;40.23;94639.34;5020665;28;7258;-61
2022/07/24 05:43:17;;;;;;;;;;;;;;;29.48;40.56;94644.69;5022181;28;9205;-61
2022/07/24 05:45:58;;;;;;;;;;;;;;;29.45;40.14;94629.84;5028623;28;8170;-61
2022/07/24 05:48:35;;;;;;;;;;;;;;;29.45;40.51;94642.97;5023730;28;7246;-61
2022/07/24 05:51:06;;;;;;;;;;;;;;;29.45;39.91;94640.94;5019883;28;8497;-61
2022/07/24 05:53:32;;;;;;;;;;;;;;;29.47;40.00;94637.66;5028567;28;7171;-61
2022/07/24 05:56:00;;;;;;;;;;;;;;;29.47;40.14;94632.84;5037020;28;9087;-61
2022/07/24 05:58:31;;;;;;;;;;;;;;;29.48;40.79;94639.88;5038338;28;8519;-61
2022/07/24 06:00:59;;;;;;;;;;;;;;;29.50;40.33;94642.88;5037095;28;7023;-61
2022/07/24 06:03:29;;;;;;;;;;;;;;;29.52;40.67;94642.34;5020051;28;7032;-61
2022/07/24 06:05:55;;;;;;;;;;;;;;;29.50;41.18;94642.88;5020386;28;8990;-61
2022/07/24 06:08:21;;;;;;;;;;;;;;;29.51;40.50;94643.63;5014330;28;9071;-61
2022/07/24 06:10:47;;;;;;;;;;;;;;;29.47;40.99;94648.75;5029274;28;9045;-61
2022/07/24 06:13:13;;;;;;;;;;;;;;;29.45;41.19;94642.97;5013852;28;7155;-61
2022/07/24 06:15:39;;;;;;;;;;;;;;;29.48;40.08;94645.44;5022422;28;7054;-61
2022/07/24 06:18:05;;;;;;;;;;;;;;;29.51;41.10;94649.91;5018719;28;10049;-61
2022/07/24 06:20:31;;;;;;;;;;;;;;;29.52;40.92;94642.34;5016559;28;7130;-61
2022/07/24 06:22:58;;;;;;;;;;;;;;;29.51;40.41;94640.84;5029487;28;7319;-61
2022/07/24 06:25:24;;;;;;;;;;;;;;;29.54;41.23;94642.53;5029181;28;9172;-61
2022/07/24 06:27:54;;;;;;;;;;;;;;;29.54;40.90;94642.53;5014271;28;9420;-61
2022/07/24 06:30:23;;;;;;;;;;;;;;;29.52;40.74;94636.78;5014971;28;9148;-61
2022/07/24 06:32:56;;;;;;;;;;;;;;;29.48;41.52;94639.13;5015518;28;9268;-61
2022/07/24 06:35:25;;;;;;;;;;;;;;;29.51;40.39;94644.38;5014185;28;9083;-61
2022/07/24 06:37:55;;;;;;;;;;;;;;;29.48;41.38;94645.44;5013827;28;7194;-61
2022/07/24 06:40:22;;;;;;;;;;;;;;;29.45;41.08;94645.75;5013676;28;7298;-61
2022/07/24 06:42:51;;;;;;;;;;;;;;;29.46;41.38;94642.44;5030887;28;9046;-61
2022/07/24 06:45:17;;;;;;;;;;;;;;;29.47;41.33;94643.19;5011326;28;7210;-61
2022/07/24 06:47:44;;;;;;;;;;;;;;;29.47;41.65;94643.91;5015600;28;7309;-61
2022/07/24 06:50:12;;;;;;;;;;;;;;;29.50;41.70;94642.88;5013985;28;9435;-61
2022/07/24 06:52:38;;;;;;;;;;;;;;;29.51;41.86;94654.72;5030240;28;7405;-61
2022/07/24 06:55:05;;;;;;;;;;;;;;;29.51;41.17;94647.16;5013889;28;7443;-61
2022/07/24 06:57:33;;;;;;;;;;;;;;;29.48;41.55;94642.66;5016536;28;9367;-61
2022/07/24 07:00:00;;;;;;;;;;;;;;;29.50;41.21;94642.13;5033754;28;7488;-61
2022/07/24 07:02:26;;;;;;;;;;;;;;;29.51;41.01;94638.09;5017027;28;8786;-61
2022/07/24 07:04:57;;;;;;;;;;;;;;;29.51;41.17;94638.09;5033563;28;7392;-61
2022/07/24 07:07:24;;;;;;;;;;;;;;;29.51;41.95;94641.59;5017014;28;9552;-62
2022/07/24 07:09:50;;;;;;;;;;;;;;;29.48;41.85;94636.34;5031790;28;9415;-61
2022/07/24 07:12:16;;;;;;;;;;;;;;;29.51;41.85;94638.09;5032280;28;7303;-61
2022/07/24 07:14:42;;;;;;;;;;;;;;;29.50;41.38;94639.34;5017786;28;7020;-61
2022/07/24 07:17:10;;;;;;;;;;;;;;;29.52;42.30;94640.31;5018228;28;9187;-61
2022/07/24 07:19:38;;;;;;;;;;;;;;;29.52;42.29;94650.66;5033223;28;9062;-61
2022/07/24 07:22:04;;;;;;;;;;;;;;;29.52;41.63;94645.84;5019924;28;9156;-61
2022/07/24 07:24:32;;;;;;;;;;;;;;;29.52;41.79;94642.34;5015091;28;7119;-61
2022/07/24 07:26:58;;;;;;;;;;;;;;;29.52;42.30;94642.34;5016978;28;7248;-61
2022/07/24 07:29:24;;;;;;;;;;;;;;;29.53;42.06;94646.59;5014130;28;7110;-61
2022/07/24 07:31:50;;;;;;;;;;;;;;;29.51;41.63;94652.69;5017210;28;7217;-61
2022/07/24 07:34:17;;;;;;;;;;;;;;;29.53;41.45;94638.28;5013696;28;7238;-61
2022/07/24 07:36:45;;;;;;;;;;;;;;;29.54;42.54;94642.53;5024397;28;8999;-61
2022/07/24 07:39:14;;;;;;;;;;;;;;;29.54;41.68;94646.06;5015184;28;9467;-61
2022/07/24 07:41:39;;;;;;;;;;;;;;;29.54;41.76;94642.53;5030702;28;9752;-61
2022/07/24 07:44:08;;;;;;;;;;;;;;;29.54;42.29;94637.75;5020210;28;7641;-61
2022/07/24 07:46:36;;;;;;;;;;;;;;;29.55;42.64;94641.28;5017295;28;7238;-61
2022/07/24 07:49:03;;;;;;;;;;;;;;;29.53;42.69;94641.81;5017863;28;7239;-61
2022/07/24 07:51:29;;;;;;;;;;;;;;;29.52;41.91;94640.31;5018629;28;7076;-61
2022/07/24 07:53:57;;;;;;;;;;;;;;;29.50;42.53;94637.31;5020566;28;7228;-61
2022/07/24 07:56:25;;;;;;;;;;;;;;;29.50;42.82;94631.78;5020487;28;7047;-61
2022/07/24 07:58:51;;;;;;;;;;;;;;;29.48;42.85;94628.03;5020145;28;9440;-61
2022/07/24 08:01:19;;;;;;;;;;;;;;;29.50;42.90;94631.03;5034792;28;7117;-61
2022/07/24 08:03:54;;;;;;;;;;;;;;;29.50;42.85;94633.81;5023184;28;9027;-61
2022/07/24 08:06:30;;;;;;;;;;;;;;;29.50;42.89;94626.25;5021792;28;9801;-61
2022/07/24 08:08:56;;;;;;;;;;;;;;;29.50;42.81;94623.47;5021448;28;8324;-61
2022/07/24 08:11:23;;;;;;;;;;;;;;;29.51;42.14;94621.44;5021182;28;8874;-61
2022/07/24 08:13:51;;;;;;;;;;;;;;;29.50;42.55;94628.25;5034967;28;9426;-62
2022/07/24 08:16:26;;;;;;;;;;;;;;;29.50;42.17;94617.94;5025164;28;7481;-61
2022/07/24 08:18:56;;;;;;;;;;;;;;;29.49;42.64;94621.97;5023552;28;7001;-61
2022/07/24 08:21:50;;;;;;;;;;;;;;;29.50;42.53;94619.94;5037510;28;9068;-61
2022/07/24 08:24:23;;;;;;;;;;;;;;;29.48;42.93;94623.25;5035368;28;7066;-61
2022/07/24 08:26:51;;;;;;;;;;;;;;;29.49;42.91;94619.19;5022395;28;7072;-62
2022/07/24 08:29:21;;;;;;;;;;;;;;;29.49;43.25;94618.47;5020008;28;7986;-61
2022/07/24 08:31:48;;;;;;;;;;;;;;;29.52;43.28;94617.38;5025957;28;9439;-61
2022/07/24 08:34:18;;;;;;;;;;;;;;;29.51;43.27;94616.66;5035227;28;9023;-61
2022/07/24 08:37:14;;;;;;;;;;;;;;;29.51;42.65;94619.44;5021800;28;7401;-61
2022/07/24 08:39:42;;;;;;;;;;;;;;;29.51;42.52;94613.13;5021579;28;7390;-61
2022/07/24 08:42:08;;;;;;;;;;;;;;;29.52;42.77;94622.94;5028665;28;7157;-61
2022/07/24 08:44:39;;;;;;;;;;;;;;;29.51;42.69;94618.69;5020502;28;7272;-61
2022/07/24 08:47:26;;;;;;;;;;;;;;;29.51;43.00;94618.69;5033719;28;9553;-61
2022/07/24 08:49:57;;;;;;;;;;;;;;;29.54;42.95;94614.81;5022685;28;7243;-61
2022/07/24 08:52:26;;;;;;;;;;;;;;;29.53;42.51;94622.41;5022010;28;7377;-62
2022/07/24 08:54:53;;;;;;;;;;;;;;;29.52;43.19;94620.16;5037200;28;8440;-62
2022/07/24 08:57:54;;;;;;;;;;;;;;;29.54;42.75;94634.22;5021217;28;9081;-61
2022/07/24 09:00:29;;;;;;;;;;;;;;;29.53;43.34;94629.97;5034213;28;7312;-62
2022/07/24 09:03:00;;;;;;;;;;;;;;;29.54;42.76;94632.22;5033633;28;8074;-61
2022/07/24 09:05:34;;;;;;;;;;;;;;;29.58;42.89;94623.59;5018596;28;7083;-61
2022/07/24 09:08:15;;;;;;;;;;;;;;;29.59;42.57;94620.28;5019840;28;9418;-61
2022/07/24 09:10:58;;;;;;;;;;;;;;;29.60;42.77;94621.75;5023481;28;7275;-61
2022/07/24 09:13:29;;;;;;;;;;;;;;;29.60;42.87;94624.53;5020602;28;7148;-61
2022/07/24 09:15:55;;;;;;;;;;;;;;;29.61;42.78;94633.59;5036472;28;9040;-61
2022/07/24 09:18:41;;;;;;;;;;;;;;;29.59;42.76;94625.81;5035919;28;9402;-61
2022/07/24 09:21:48;;;;;;;;;;;;;;;29.60;43.60;94621.03;5024433;28;9023;-61
2022/07/24 09:24:18;;;;;;;;;;;;;;;29.60;42.56;94624.53;5034690;28;7349;-62
2022/07/24 09:26:55;;;;;;;;;;;;;;;29.60;42.72;94619.00;5034750;28;7303;-62
2022/07/24 09:29:24;;;;;;;;;;;;;;;29.62;42.88;94616.44;5016580;28;7314;-61
2022/07/24 09:31:59;;;;;;;;;;;;;;;29.63;43.21;94617.19;5016784;28;9097;-62
2022/07/24 09:34:37;;;;;;;;;;;;;;;29.62;42.99;94610.88;5041164;28;9093;-61
2022/07/24 09:37:09;;;;;;;;;;;;;;;29.62;43.01;94610.88;5018321;28;7038;-61
2022/07/24 09:39:37;;;;;;;;;;;;;;;29.64;42.56;94610.38;5033641;28;9112;-61
2022/07/24 09:42:12;;;;;;;;;;;;;;;29.64;42.66;94607.59;5023815;28;7284;-61
2022/07/24 09:44:38;;;;;;;;;;;;;;;29.64;43.12;94610.38;5037017;28;7051;-61
2022/07/24 09:47:09;;;;;;;;;;;;;;;29.63;42.70;94606.84;5033247;28;9575;-61
2022/07/24 09:49:37;;;;;;;;;;;;;;;29.61;43.05;94606.63;5031734;28;9515;-61
2022/07/24 09:52:12;;;;;;;;;;;;;;;29.61;43.21;94606.63;5015980;28;7223;-61
2022/07/24 09:54:45;;;;;;;;;;;;;;;29.62;42.75;94605.34;5013050;28;7230;-61
2022/07/24 09:57:29;;;;;;;;;;;;;;;29.63;42.61;94603.31;5016084;28;9012;-61
2022/07/24 10:00:07;;;;;;;;;;;;;;;29.61;42.32;94603.88;5012153;28;7245;-61
2022/07/24 10:02:37;;;;;;;;;;;;;;;29.60;42.97;94605.13;5030860;28;7232;-62
2022/07/24 10:05:03;;;;;;;;;;;;;;;29.59;43.11;94606.44;5023365;28;7228;-62
2022/07/24 10:07:30;;;;;;;;;;;;;;;29.62;42.76;94604.63;5020318;28;8908;-61
2022/07/24 10:10:33;;;;;;;;;;;;;;;29.63;42.71;94606.09;5018889;28;7828;-62
2022/07/24 10:13:02;;;;;;;;;;;;;;;29.64;42.66;94604.84;5000174;28;9254;-61
2022/07/24 10:15:36;;;;;;;;;;;;;;;29.65;42.27;94603.53;4997078;28;9087;-61
2022/07/24 10:18:17;;;;;;;;;;;;;;;29.65;42.81;94592.44;5001544;28;7374;-61
2022/07/24 10:21:08;;;;;;;;;;;;;;;29.67;43.00;94600.97;4994565;28;7256;-61
2022/07/24 10:23:53;;;;;;;;;;;;;;;29.66;42.95;94605.78;4998935;28;9540;-62
2022/07/24 10:26:36;;;;;;;;;;;;;;;29.66;42.62;94602.28;4990731;28;7690;-62
2022/07/24 10:29:35;;;;;;;;;;;;;;;29.68;42.43;94596.94;4979676;28;9177;-62
2022/07/24 10:32:16;;;;;;;;;;;;;;;29.69;42.05;94599.16;4938314;28;7194;-61
2022/07/24 10:35:13;;;;;;;;;;;;;;;29.70;42.81;94583.28;4942638;28;8709;-61
2022/07/24 10:38:03;;;;;;;;;;;;;;;29.70;42.46;94583.28;4923113;28;9376;-61
2022/07/24 10:40:42;;;;;;;;;;;;;;;29.68;43.18;94585.84;4921050;29;9181;-62
2022/07/24 10:43:09;;;;;;;;;;;;;;;29.67;42.41;94582.31;4938096;28;8879;-62
2022/07/24 10:45:45;;;;;;;;;;;;;;;29.67;42.78;94579.53;4921022;28;7421;-61
2022/07/24 10:48:20;;;;;;;;;;;;;;;29.68;42.64;94574.75;4951422;28;8854;-61
2022/07/24 10:51:07;;;;;;;;;;;;;;;29.69;42.50;94574.22;4952947;28;9250;-61
2022/07/24 10:53:41;;;;;;;;;;;;;;;29.68;42.79;94572.75;4964586;28;7028;-61
2022/07/24 10:56:28;;;;;;;;;;;;;;;29.70;42.86;94577.75;4964892;28;9555;-61
2022/07/24 10:59:13;;;;;;;;;;;;;;;29.68;42.36;94567.19;4973821;28;9119;-61
2022/07/24 11:01:51;;;;;;;;;;;;;;;29.71;42.13;94568.16;4956806;28;7436;-61
2022/07/24 11:04:33;;;;;;;;;;;;;;;29.69;42.55;94574.22;4957120;28;9073;-61
2022/07/24 11:07:15;;;;;;;;;;;;;;;29.69;42.49;94565.16;4972731;28;7503;-61
2022/07/24 11:10:07;;;;;;;;;;;;;;;29.71;43.00;94559.84;5021386;28;6874;-61
2022/07/24 11:12:45;;;;;;;;;;;;;;;29.71;42.79;94562.63;5040679;28;9196;-61
2022/07/24 11:18:15;;;;;;;;;;;;;;;29.72;43.02;94553.00;5021314;28;7646;-61
2022/07/24 11:20:42;;;;;;;;;;;;;;;29.72;42.99;94548.22;5023240;28;8891;-61
2022/07/24 11:23:21;;;;;;;;;;;;;;;29.73;42.21;94546.91;5025269;28;7541;-61
2022/07/24 11:26:35;;;;;;;;;;;;;;;29.73;42.56;94544.13;5022551;28;7272;-61
2022/07/24 11:29:22;;;;;;;;;;;;;;;29.72;42.87;94542.66;5031139;28;6925;-61
2022/07/24 11:32:22;;;;;;;;;;;;;;;29.74;43.06;94540.13;5031333;28;7869;-61
2022/07/24 11:34:51;;;;;;;;;;;;;;;29.75;42.28;94544.38;5031095;28;9424;-61
2022/07/24 11:37:19;;;;;;;;;;;;;;;29.76;42.16;94542.34;5015110;28;7232;-61
2022/07/24 11:39:46;;;;;;;;;;;;;;;29.76;42.76;94534.03;4998696;28;9092;-62
2022/07/24 11:42:30;;;;;;;;;;;;;;;29.76;42.12;94525.72;5030427;28;7012;-61
2022/07/24 11:45:46;;;;;;;;;;;;;;;29.77;42.25;94541.84;5022794;28;7077;-61
2022/07/24 11:48:31;;;;;;;;;;;;;;;29.76;42.53;94532.03;4955749;28;7724;-61
2022/07/24 11:51:07;;;;;;;;;;;;;;;29.77;42.34;94527.97;4971712;28;9103;-61
2022/07/24 11:53:33;;;;;;;;;;;;;;;29.77;42.47;94522.44;4954979;28;9223;-61
2022/07/24 11:56:05;;;;;;;;;;;;;;;29.80;42.22;94526.13;4970758;28;9422;-61
2022/07/24 11:58:42;;;;;;;;;;;;;;;29.83;42.50;94525.06;4955604;28;7070;-61
2022/07/24 12:01:25;;;;;;;;;;;;;;;29.86;42.64;94520.50;4954164;28;9058;-61
2022/07/24 12:04:07;;;;;;;;;;;;;;;29.90;41.85;94523.69;4971787;28;7138;-61
2022/07/24 12:06:33;;;;;;;;;;;;;;;29.89;42.33;94517.38;4953148;28;9134;-61
2022/07/24 12:09:09;;;;;;;;;;;;;;;29.91;42.65;94512.03;4955063;28;7230;-61
2022/07/24 12:11:44;;;;;;;;;;;;;;;29.92;42.18;94504.47;4938019;28;9191;-61
2022/07/24 12:14:26;;;;;;;;;;;;;;;29.93;42.13;94503.19;4961335;28;7006;-61
2022/07/24 12:16:55;;;;;;;;;;;;;;;29.96;42.26;94499.34;4963666;28;9061;-61
2022/07/24 12:19:23;;;;;;;;;;;;;;;29.95;41.89;94493.03;4945849;28;7224;-61
2022/07/24 12:21:52;;;;;;;;;;;;;;;29.96;41.63;94494.53;4968720;28;7227;-61
2022/07/24 12:24:23;;;;;;;;;;;;;;;29.95;42.62;94490.25;4983793;28;9073;-61
2022/07/24 12:26:51;;;;;;;;;;;;;;;29.98;42.34;94486.44;5033001;28;7256;-61
2022/07/24 12:29:17;;;;;;;;;;;;;;;29.98;41.88;94480.88;5017496;28;7311;-61
2022/07/24 12:31:43;;;;;;;;;;;;;;;29.97;42.12;94478.66;5017619;28;9046;-61
2022/07/24 12:34:09;;;;;;;;;;;;;;;29.98;42.56;94480.88;5016016;28;7310;-61
2022/07/24 12:36:39;;;;;;;;;;;;;;;30.00;42.25;94477.56;5019361;28;8824;-61
2022/07/24 12:39:07;;;;;;;;;;;;;;;29.99;41.73;94476.84;5018171;28;7247;-61
2022/07/24 12:41:51;;;;;;;;;;;;;;;29.99;41.87;94479.59;5035277;28;7219;-61
2022/07/24 12:44:17;;;;;;;;;;;;;;;29.99;41.86;94474.06;5018696;28;7101;-61
2022/07/24 12:47:15;;;;;;;;;;;;;;;30.00;42.82;94472.75;5022879;28;7212;-61
2022/07/24 12:50:12;;;;;;;;;;;;;;;30.04;42.00;94477.97;5021471;28;7365;-61
2022/07/24 12:52:38;;;;;;;;;;;;;;;30.04;41.69;94467.63;5002009;28;9623;-61
2022/07/24 12:55:19;;;;;;;;;;;;;;;30.03;42.42;94465.41;5002132;28;9281;-61
2022/07/24 12:57:49;;;;;;;;;;;;;;;30.04;42.46;94462.06;5001346;28;9436;-61
2022/07/24 13:00:16;;;;;;;;;;;;;;;30.07;42.04;94471.34;5018638;28;7051;-61
2022/07/24 13:02:43;;;;;;;;;;;;;;;30.05;41.67;94457.28;5011557;28;7012;-61
2022/07/24 13:05:37;;;;;;;;;;;;;;;30.07;41.65;94463.78;5004870;28;7491;-61
2022/07/24 13:08:11;;;;;;;;;;;;;;;30.07;42.38;94458.25;5019698;28;7059;-61
2022/07/24 13:11:06;;;;;;;;;;;;;;;30.09;42.90;94464.00;5019395;28;8866;-61
2022/07/24 13:13:35;;;;;;;;;;;;;;;30.10;41.66;94457.13;5003054;28;7403;-61
2022/07/24 13:16:16;;;;;;;;;;;;;;;30.10;42.30;94451.59;5018582;28;8512;-61
2022/07/24 13:18:55;;;;;;;;;;;;;;;30.11;42.41;94449.56;4998418;28;7219;-61
2022/07/24 13:21:42;;;;;;;;;;;;;;;30.12;41.85;94449.06;5021527;28;9642;-61
2022/07/24 13:24:11;;;;;;;;;;;;;;;30.12;42.29;94446.28;4986472;28;7192;-61
2022/07/24 13:26:42;;;;;;;;;;;;;;;30.11;42.45;94444.78;5009937;28;7198;-61
2022/07/24 13:29:14;;;;;;;;;;;;;;;30.13;42.58;94439.44;5037724;28;7138;-61
2022/07/24 13:31:47;;;;;;;;;;;;;;;30.13;41.69;94439.44;5019513;28;9472;-61
2022/07/24 13:34:25;;;;;;;;;;;;;;;30.13;41.98;94436.66;5019986;28;9139;-61